Issaquah, WA

8:05 PM PST on December 09, 2016 (GMT -0800)
Olde Town Issaquah | | Change Station

Elev 174 ft 47.53 °N, 122.03 °W | Updated 8 seconds ago

Ice Pellets
Ice Pellets
35.1 °F
Feels Like 35 °F
N
0.0
Wind Variable Wind from SE
Gusts 0.0 mph

Today
High -- | Low -- °F
--% Chance of Precip.
Yesterday
High -- | Low -- °F
Precip. -- in
Pressure 29.85 in
Visibility 7.0 miles
Clouds Overcast 3500 ft
Windchill 35 °F
Dew Point 34 °F
Humidity 98%
Rainfall 0.00 in
Snow Depth Not available.
7:44 AM 4:16 PM
Waxing Gibbous, 80% visible
METAR KRNT 100353Z AUTO 17004KT 7SM -RA OVC035 02/M01 A2983 RMK AO2 RAB11 SLP106 P0000 T00171006
Pressure 29.85 in
Visibility 7.0 miles
Clouds Overcast 3500 ft
Windchill 35 °F
Dew Point 34 °F
Humidity 98%
Rainfall 0.00 in
Snow Depth Not available.
7:44 AM 4:16 PM
Waxing Gibbous, 80% visible
METAR KRNT 100353Z AUTO 17004KT 7SM -RA OVC035 02/M01 A2983 RMK AO2 RAB11 SLP106 P0000 T00171006

10-Day Weather Forecast

Almanac

Astronomy

Dec. 09, 2016 Rise Set
Actual Time
Civil Twilight
Nautical Twilight
Astronomical Twilight
Moon
Length of Visible Light
Length of Day
Tomorrow will be .
, % of the Moon is Illuminated

Today's Extremes

State Highs State Lows

Community

WunderPhotos

Upload Photos

1,956,529 photos uploaded!

WunderBlog® & News

Nearby

Air Quality

  Air Quality AQ Index Pollutant
Not available.

Snow Depth

Station Depth Elevation

Earthquake Activity

City Distance Mag. Time & Date
Minimum magnitude displayed is 2.5.

Coastal Water Temperatures

Place Temperature

Stations

Nearby Weather Stations

Station Location Temp. Windchill Dew Point Humidity Wind Precip. Elev Updated Type
                   

Watches & Warnings

There are currently no watches in effect.